createdAt,value
2017-10-30T00:00:01.222Z,4.47
2017-10-30T00:00:05.304Z,4.47
2017-10-30T00:00:09.511Z,4.43
2017-10-30T00:00:13.854Z,4.44
2017-10-30T00:00:17.935Z,4.47
2017-10-30T00:00:21.880Z,4.43
2017-10-30T00:00:25.961Z,4.44
2017-10-30T00:00:30.047Z,4.46
2017-10-30T00:00:33.861Z,4.47
2017-10-30T00:00:37.814Z,4.43
2017-10-30T00:00:42.024Z,4.43
2017-10-30T00:00:45.967Z,4.43
2017-10-30T00:00:50.051Z,4.47
2017-10-30T00:00:53.993Z,4.5
2017-10-30T00:00:58.082Z,4.47
2017-10-30T00:01:02.589Z,4.47
2017-10-30T00:01:06.800Z,4.46
2017-10-30T00:01:10.880Z,4.47
2017-10-30T00:01:15.107Z,4.5
2017-10-30T00:01:19.321Z,4.44
2017-10-30T00:01:23.529Z,4.38
2017-10-30T00:01:27.612Z,4.44
2017-10-30T00:01:31.825Z,4.42
2017-10-30T00:01:35.920Z,4.47
2017-10-30T00:01:40.137Z,4.46
2017-10-30T00:01:44.081Z,4.46
2017-10-30T00:01:48.293Z,4.44
2017-10-30T00:01:52.499Z,4.46
2017-10-30T00:01:56.452Z,4.44
2017-10-30T00:02:00.436Z,4.42
2017-10-30T00:02:04.516Z,4.44
2017-10-30T00:02:08.729Z,4.39
2017-10-30T00:02:13.075Z,4.46
2017-10-30T00:02:17.290Z,4.46
2017-10-30T00:02:21.502Z,4.44
2017-10-30T00:02:25.582Z,4.42
2017-10-30T00:02:29.524Z,4.42
2017-10-30T00:02:33.603Z,4.44
2017-10-30T00:02:37.551Z,4.43
2017-10-30T00:02:41.764Z,4.46
2017-10-30T00:02:45.972Z,4.47
2017-10-30T00:02:49.793Z,4.44
2017-10-30T00:02:54.000Z,4.44
2017-10-30T00:02:57.954Z,4.47
2017-10-30T00:03:02.438Z,4.44
2017-10-30T00:03:06.413Z,4.47
2017-10-30T00:03:10.502Z,4.44
2017-10-30T00:03:14.594Z,4.44
2017-10-30T00:03:18.413Z,4.43
2017-10-30T00:03:22.628Z,4.43
2017-10-30T00:03:26.701Z,4.51
2017-10-30T00:03:30.792Z,4.44
2017-10-30T00:03:34.871Z,4.38
2017-10-30T00:03:38.816Z,4.47
2017-10-30T00:03:43.304Z,4.39
2017-10-30T00:03:47.525Z,4.43
2017-10-30T00:03:51.472Z,4.46
2017-10-30T00:03:55.417Z,4.46
2017-10-30T00:03:59.501Z,4.47
2017-10-30T00:04:03.582Z,4.44
2017-10-30T00:04:07.679Z,4.42
2017-10-30T00:04:11.898Z,4.43
2017-10-30T00:04:15.580Z,4.46
2017-10-30T00:04:19.523Z,4.47
2017-10-30T00:04:23.482Z,4.43
2017-10-30T00:04:27.560Z,4.49
2017-10-30T00:04:31.769Z,4.43
2017-10-30T00:04:36.128Z,4.38
2017-10-30T00:04:40.501Z,4.39
2017-10-30T00:04:44.315Z,4.47
2017-10-30T00:04:48.399Z,4.46
2017-10-30T00:04:52.347Z,4.44
2017-10-30T00:04:56.433Z,4.47
2017-10-30T00:05:00.387Z,4.43
2017-10-30T00:05:04.731Z,4.43
2017-10-30T00:05:08.807Z,4.46
2017-10-30T00:05:13.020Z,4.46
2017-10-30T00:05:16.966Z,4.46
2017-10-30T00:05:21.057Z,4.43
2017-10-30T00:05:25.130Z,4.42
2017-10-30T00:05:29.215Z,4.39
2017-10-30T00:05:33.164Z,4.35
2017-10-30T00:05:37.240Z,4.43
2017-10-30T00:05:41.454Z,4.38
2017-10-30T00:05:45.539Z,4.44
2017-10-30T00:05:49.750Z,4.47
2017-10-30T00:05:54.090Z,4.49
2017-10-30T00:05:58.044Z,4.44
2017-10-30T00:06:02.560Z,4.43
2017-10-30T00:06:06.633Z,4.47
2017-10-30T00:06:10.447Z,4.42
2017-10-30T00:06:14.676Z,4.44
2017-10-30T00:06:18.754Z,4.44
2017-10-30T00:06:22.701Z,4.38
2017-10-30T00:06:26.917Z,4.46
2017-10-30T00:06:31.129Z,4.38
2017-10-30T00:06:35.079Z,4.39
2017-10-30T00:06:39.035Z,4.43
2017-10-30T00:06:43.112Z,4.42
2017-10-30T00:06:47.192Z,4.34
2017-10-30T00:06:51.277Z,4.39
2017-10-30T00:06:55.232Z,4.42
2017-10-30T00:06:58.919Z,4.43
2017-10-30T00:07:03.065Z,4.42
2017-10-30T00:07:07.140Z,4.46
2017-10-30T00:07:11.384Z,4.43
2017-10-30T00:07:15.472Z,4.43
2017-10-30T00:07:19.560Z,4.44
2017-10-30T00:07:23.636Z,4.5
2017-10-30T00:07:27.718Z,4.43
2017-10-30T00:07:31.792Z,4.44
2017-10-30T00:07:35.739Z,4.44
2017-10-30T00:07:39.556Z,4.46
2017-10-30T00:07:43.633Z,4.39
2017-10-30T00:07:47.842Z,4.42
2017-10-30T00:07:51.917Z,4.42
2017-10-30T00:07:55.993Z,4.34
2017-10-30T00:08:00.067Z,4.43
2017-10-30T00:08:04.419Z,4.43
2017-10-30T00:08:08.496Z,4.43
2017-10-30T00:08:12.858Z,4.44
2017-10-30T00:08:16.714Z,4.42
2017-10-30T00:08:20.796Z,4.44
2017-10-30T00:08:24.605Z,4.43
2017-10-30T00:08:28.573Z,4.32
2017-10-30T00:08:32.791Z,4.36
2017-10-30T00:08:36.605Z,4.43
2017-10-30T00:08:40.684Z,4.43
2017-10-30T00:08:44.892Z,4.42
2017-10-30T00:08:49.098Z,4.46
2017-10-30T00:08:52.921Z,4.42
2017-10-30T00:08:57.259Z,4.35
2017-10-30T00:09:01.603Z,4.42
2017-10-30T00:09:06.066Z,4.36
2017-10-30T00:09:10.282Z,4.39
2017-10-30T00:09:14.095Z,4.34
2017-10-30T00:09:18.039Z,4.34
2017-10-30T00:09:22.136Z,4.38
2017-10-30T00:09:26.080Z,4.36
2017-10-30T00:09:30.416Z,4.43
2017-10-30T00:09:34.761Z,4.35
2017-10-30T00:09:38.858Z,4.42
2017-10-30T00:09:42.673Z,4.35
2017-10-30T00:09:46.755Z,4.38
2017-10-30T00:09:50.706Z,4.46
2017-10-30T00:09:54.520Z,4.43
2017-10-30T00:09:58.863Z,4.42
2017-10-30T00:10:02.784Z,4.34
2017-10-30T00:10:07.019Z,4.46
2017-10-30T00:10:11.227Z,4.35
2017-10-30T00:10:15.583Z,4.38
2017-10-30T00:10:19.404Z,4.38
2017-10-30T00:10:23.477Z,4.43
2017-10-30T00:10:27.561Z,4.36
2017-10-30T00:10:31.655Z,4.34
2017-10-30T00:10:35.605Z,4.34
2017-10-30T00:10:39.815Z,4.38
2017-10-30T00:10:43.769Z,4.34
2017-10-30T00:10:48.001Z,4.38
2017-10-30T00:10:51.826Z,4.36
2017-10-30T00:10:55.776Z,4.35
2017-10-30T00:11:00.120Z,4.34
2017-10-30T00:11:04.319Z,4.34
2017-10-30T00:11:08.405Z,4.35
2017-10-30T00:11:12.486Z,4.36
2017-10-30T00:11:16.429Z,4.38
2017-10-30T00:11:20.380Z,4.32
2017-10-30T00:11:24.323Z,4.35
2017-10-30T00:11:28.269Z,4.39
2017-10-30T00:11:32.608Z,4.36
2017-10-30T00:11:36.692Z,4.34
2017-10-30T00:11:40.910Z,4.35
2017-10-30T00:11:44.995Z,4.39
2017-10-30T00:11:49.076Z,4.29
2017-10-30T00:11:53.294Z,4.39
2017-10-30T00:11:57.388Z,4.32
2017-10-30T00:12:01.718Z,4.34
2017-10-30T00:12:05.797Z,4.26
2017-10-30T00:12:10.156Z,4.35
2017-10-30T00:12:13.978Z,4.32
2017-10-30T00:12:17.790Z,4.46
2017-10-30T00:12:21.878Z,4.29
2017-10-30T00:12:25.820Z,4.38
2017-10-30T00:12:29.900Z,4.25
2017-10-30T00:12:33.985Z,4.32
2017-10-30T00:12:38.187Z,4.26
2017-10-30T00:12:42.397Z,4.32
2017-10-30T00:12:46.343Z,4.36
2017-10-30T00:12:50.156Z,4.35
2017-10-30T00:12:54.366Z,4.36
2017-10-30T00:12:58.449Z,4.34
2017-10-30T00:13:02.831Z,4.35
2017-10-30T00:13:07.050Z,4.36
2017-10-30T00:13:10.999Z,4.35
2017-10-30T00:13:14.947Z,4.32
2017-10-30T00:13:19.149Z,4.28
2017-10-30T00:13:23.095Z,4.35
2017-10-30T00:13:26.924Z,4.31
2017-10-30T00:13:31.134Z,4.36
2017-10-30T00:13:35.085Z,4.34
2017-10-30T00:13:39.299Z,4.28
2017-10-30T00:13:43.379Z,4.34
2017-10-30T00:13:47.447Z,4.36
2017-10-30T00:13:51.659Z,4.29
2017-10-30T00:13:55.900Z,4.34
2017-10-30T00:14:00.117Z,4.29
2017-10-30T00:14:04.447Z,4.43
2017-10-30T00:14:08.565Z,4.28
2017-10-30T00:14:12.518Z,4.43
2017-10-30T00:14:16.477Z,4.36
2017-10-30T00:14:20.419Z,4.35
2017-10-30T00:14:24.361Z,4.29
2017-10-30T00:14:28.432Z,4.32
2017-10-30T00:14:32.512Z,4.28
2017-10-30T00:14:36.738Z,4.38
2017-10-30T00:14:40.688Z,4.29
2017-10-30T00:14:44.638Z,4.29
2017-10-30T00:14:48.584Z,4.28
2017-10-30T00:14:52.663Z,4.28
2017-10-30T00:14:56.610Z,4.32
2017-10-30T00:15:00.564Z,4.21
2017-10-30T00:15:04.920Z,4.29
2017-10-30T00:15:09.141Z,4.31
2017-10-30T00:15:13.355Z,4.34
2017-10-30T00:15:17.306Z,4.32
2017-10-30T00:15:21.120Z,4.31
2017-10-30T00:15:25.194Z,4.34
2017-10-30T00:15:29.537Z,4.28
2017-10-30T00:15:33.485Z,4.26
2017-10-30T00:15:37.692Z,4.26
2017-10-30T00:15:41.511Z,4.34
2017-10-30T00:15:45.590Z,4.34
2017-10-30T00:15:49.401Z,4.32
2017-10-30T00:15:53.359Z,4.31
2017-10-30T00:15:57.442Z,4.24
2017-10-30T00:16:01.658Z,4.25
2017-10-30T00:16:05.844Z,4.31
2017-10-30T00:16:10.055Z,4.24
2017-10-30T00:16:14.267Z,4.25
2017-10-30T00:16:18.358Z,4.26
2017-10-30T00:16:22.705Z,4.31
2017-10-30T00:16:27.079Z,4.28
2017-10-30T00:16:31.026Z,4.24
2017-10-30T00:16:35.110Z,4.29
2017-10-30T00:16:39.331Z,4.25
2017-10-30T00:16:43.546Z,4.29
2017-10-30T00:16:47.624Z,4.29
2017-10-30T00:16:51.968Z,4.26
2017-10-30T00:16:56.047Z,4.25
2017-10-30T00:16:59.860Z,4.32
2017-10-30T00:17:04.218Z,4.36
2017-10-30T00:17:08.451Z,4.26
2017-10-30T00:17:12.929Z,4.21
2017-10-30T00:17:17.150Z,4.29
2017-10-30T00:17:20.965Z,4.36
2017-10-30T00:17:24.914Z,4.28
2017-10-30T00:17:28.996Z,4.31
2017-10-30T00:17:33.077Z,4.34
2017-10-30T00:17:37.157Z,4.29
2017-10-30T00:17:41.239Z,4.24
2017-10-30T00:17:45.320Z,4.28
2017-10-30T00:17:49.411Z,4.35
2017-10-30T00:17:53.489Z,4.28
2017-10-30T00:17:57.565Z,4.29
2017-10-30T00:18:01.789Z,4.31
2017-10-30T00:18:06.277Z,4.24
2017-10-30T00:18:10.223Z,4.25
2017-10-30T00:18:14.168Z,4.24
2017-10-30T00:18:18.255Z,4.28
2017-10-30T00:18:22.073Z,4.26
2017-10-30T00:18:26.294Z,4.21
2017-10-30T00:18:30.378Z,4.36
2017-10-30T00:18:34.581Z,4.25
2017-10-30T00:18:38.523Z,4.21
2017-10-30T00:18:42.474Z,4.28
2017-10-30T00:18:46.551Z,4.29
2017-10-30T00:18:50.380Z,4.32
2017-10-30T00:18:54.477Z,4.28
2017-10-30T00:18:58.548Z,4.2
2017-10-30T00:19:02.894Z,4.34
2017-10-30T00:19:06.974Z,4.28
2017-10-30T00:19:10.922Z,4.24
2017-10-30T00:19:15.042Z,4.28
2017-10-30T00:19:19.394Z,4.21
2017-10-30T00:19:23.327Z,4.24
2017-10-30T00:19:27.418Z,4.25
2017-10-30T00:19:31.367Z,4.25
2017-10-30T00:19:35.445Z,4.28
2017-10-30T00:19:39.654Z,4.29
2017-10-30T00:19:43.863Z,4.25
2017-10-30T00:19:47.940Z,4.26
2017-10-30T00:19:51.755Z,4.25
2017-10-30T00:19:55.833Z,4.26
2017-10-30T00:20:00.170Z,4.21
2017-10-30T00:20:04.119Z,4.32
2017-10-30T00:20:08.206Z,4.28
2017-10-30T00:20:12.414Z,4.24
2017-10-30T00:20:16.618Z,4.24
2017-10-30T00:20:20.717Z,4.24
2017-10-30T00:20:24.930Z,4.29
2017-10-30T00:20:29.010Z,4.29
2017-10-30T00:20:33.225Z,4.26
2017-10-30T00:20:37.565Z,4.28
2017-10-30T00:20:41.777Z,4.25
2017-10-30T00:20:45.997Z,4.29
2017-10-30T00:20:49.937Z,4.31
2017-10-30T00:20:54.019Z,4.25
2017-10-30T00:20:57.709Z,4.25
2017-10-30T00:21:01.656Z,4.31
2017-10-30T00:21:05.600Z,4.28
2017-10-30T00:21:09.417Z,4.28
2017-10-30T00:21:13.631Z,4.29
2017-10-30T00:21:17.978Z,4.26
2017-10-30T00:21:22.322Z,4.26
2017-10-30T00:21:26.140Z,4.26
2017-10-30T00:21:30.081Z,4.29
2017-10-30T00:21:34.289Z,4.28
2017-10-30T00:21:38.507Z,4.31
2017-10-30T00:21:42.717Z,4.25
2017-10-30T00:21:46.667Z,4.26
2017-10-30T00:21:50.894Z,4.2
2017-10-30T00:21:54.840Z,4.26
2017-10-30T00:21:58.658Z,4.26
2017-10-30T00:22:02.907Z,4.29
2017-10-30T00:22:06.873Z,4.18
2017-10-30T00:22:11.085Z,4.17
2017-10-30T00:22:15.302Z,4.28
2017-10-30T00:22:19.506Z,4.2
2017-10-30T00:22:23.597Z,4.24
2017-10-30T00:22:27.948Z,4.29
2017-10-30T00:22:31.892Z,4.28
2017-10-30T00:22:35.835Z,4.28
2017-10-30T00:22:40.068Z,4.17
2017-10-30T00:22:44.181Z,4.29
2017-10-30T00:22:47.997Z,4.25
2017-10-30T00:22:52.082Z,4.25
2017-10-30T00:22:56.052Z,4.17
2017-10-30T00:23:00.256Z,4.25
2017-10-30T00:23:04.468Z,4.31
2017-10-30T00:23:08.421Z,4.16
2017-10-30T00:23:12.499Z,4.21
2017-10-30T00:23:16.709Z,4.31
2017-10-30T00:23:20.658Z,4.21
2017-10-30T00:23:24.466Z,4.28
2017-10-30T00:23:28.545Z,4.16
2017-10-30T00:23:32.494Z,4.17
2017-10-30T00:23:36.568Z,4.25
2017-10-30T00:23:40.659Z,4.14
2017-10-30T00:23:44.732Z,4.2
2017-10-30T00:23:48.545Z,4.13
2017-10-30T00:23:52.635Z,4.17
2017-10-30T00:23:56.582Z,4.26
2017-10-30T00:24:00.668Z,4.21
2017-10-30T00:24:04.717Z,4.2
2017-10-30T00:24:09.071Z,4.21
2017-10-30T00:24:13.025Z,4.14
2017-10-30T00:24:17.238Z,4.18
2017-10-30T00:24:21.459Z,4.16
2017-10-30T00:24:25.676Z,4.2
2017-10-30T00:24:30.020Z,4.11
2017-10-30T00:24:34.105Z,4.16
2017-10-30T00:24:38.309Z,4.16
2017-10-30T00:24:42.559Z,4.13
2017-10-30T00:24:46.764Z,4.11
2017-10-30T00:24:50.578Z,4.16
2017-10-30T00:24:54.794Z,4.11
2017-10-30T00:24:58.878Z,4.21
2017-10-30T00:25:02.883Z,4.26
2017-10-30T00:25:06.961Z,4.14
2017-10-30T00:25:11.177Z,4.17
2017-10-30T00:25:14.993Z,4.28
2017-10-30T00:25:19.202Z,4.14
2017-10-30T00:25:23.411Z,4.11
2017-10-30T00:25:27.357Z,4.24
2017-10-30T00:25:31.042Z,4.1
2017-10-30T00:25:34.992Z,4.14
2017-10-30T00:25:39.209Z,4.24
2017-10-30T00:25:42.895Z,4.13
2017-10-30T00:25:47.237Z,4.13
2017-10-30T00:25:51.325Z,4.16
2017-10-30T00:25:55.267Z,4.13
2017-10-30T00:25:59.349Z,4.13
2017-10-30T00:26:03.302Z,4.18
2017-10-30T00:26:07.382Z,4.14
2017-10-30T00:26:11.719Z,4.24
2017-10-30T00:26:15.796Z,4.11
2017-10-30T00:26:19.613Z,4.17
2017-10-30T00:26:23.694Z,4.11
2017-10-30T00:26:27.911Z,4.14
2017-10-30T00:26:32.129Z,4.24
2017-10-30T00:26:36.203Z,4.18
2017-10-30T00:26:40.018Z,4.26
2017-10-30T00:26:43.839Z,4.13
2017-10-30T00:26:47.806Z,4.16
2017-10-30T00:26:51.750Z,4.18
2017-10-30T00:26:55.830Z,4.1
2017-10-30T00:27:00.175Z,4.17
2017-10-30T00:27:04.253Z,4.14
2017-10-30T00:27:08.065Z,4.13
2017-10-30T00:27:12.152Z,4.25
2017-10-30T00:27:16.234Z,4.14
2017-10-30T00:27:20.448Z,4.14
2017-10-30T00:27:24.935Z,4.16
2017-10-30T00:27:29.274Z,4.18
2017-10-30T00:27:33.351Z,4.16
2017-10-30T00:27:37.695Z,4.11
2017-10-30T00:27:41.801Z,4.14
2017-10-30T00:27:45.776Z,4.16
2017-10-30T00:27:49.985Z,4.14
2017-10-30T00:27:54.063Z,4.14
2017-10-30T00:27:58.145Z,4.18
2017-10-30T00:28:01.961Z,4.14
2017-10-30T00:28:05.908Z,4.17
2017-10-30T00:28:10.127Z,4.18
2017-10-30T00:28:14.469Z,4.16
2017-10-30T00:28:18.549Z,4.16
2017-10-30T00:28:22.624Z,4.18
2017-10-30T00:28:26.577Z,4.24
2017-10-30T00:28:30.921Z,4.16
2017-10-30T00:28:35.007Z,4.16
2017-10-30T00:28:39.223Z,4.18
2017-10-30T00:28:43.167Z,4.17
2017-10-30T00:28:47.246Z,4.13
2017-10-30T00:28:51.193Z,4.14
2017-10-30T00:28:55.154Z,4.24
2017-10-30T00:28:58.961Z,4.13
2017-10-30T00:29:03.040Z,4.16
2017-10-30T00:29:07.262Z,4.16
2017-10-30T00:29:11.208Z,4.13
2017-10-30T00:29:15.675Z,4.18
2017-10-30T00:29:19.750Z,4.17
2017-10-30T00:29:23.700Z,4.21
2017-10-30T00:29:27.915Z,4.11
2017-10-30T00:29:32.134Z,4.13
2017-10-30T00:29:36.221Z,4.13
2017-10-30T00:29:39.914Z,4.14
2017-10-30T00:29:43.992Z,4.13
2017-10-30T00:29:48.231Z,4.13
2017-10-30T00:29:52.309Z,4.2
2017-10-30T00:29:56.254Z,4.13
2017-10-30T00:30:00.070Z,4.13
2017-10-30T00:30:04.420Z,4.11
2017-10-30T00:30:08.894Z,4.11
2017-10-30T00:30:12.843Z,4.11
2017-10-30T00:30:17.208Z,4.2
2017-10-30T00:30:21.546Z,4.13
2017-10-30T00:30:25.633Z,4.17
2017-10-30T00:30:29.599Z,4.11
2017-10-30T00:30:33.677Z,4.14
2017-10-30T00:30:37.756Z,4.17
2017-10-30T00:30:41.987Z,4.11
2017-10-30T00:30:46.218Z,4.14
2017-10-30T00:30:49.900Z,4.14
2017-10-30T00:30:53.979Z,4.13
2017-10-30T00:30:57.951Z,4.17
2017-10-30T00:31:02.029Z,4.18
2017-10-30T00:31:06.114Z,4.18
2017-10-30T00:31:10.069Z,4.11
2017-10-30T00:31:14.284Z,4.11
2017-10-30T00:31:18.494Z,4.13
2017-10-30T00:31:22.579Z,4.08
2017-10-30T00:31:26.797Z,4.16
2017-10-30T00:31:30.875Z,4.13
2017-10-30T00:31:34.947Z,4.16
2017-10-30T00:31:39.047Z,4.1
2017-10-30T00:31:42.857Z,4.16
2017-10-30T00:31:47.207Z,4.17
2017-10-30T00:31:51.023Z,4.17
2017-10-30T00:31:54.845Z,4.13
2017-10-30T00:31:58.795Z,4.14
2017-10-30T00:32:03.445Z,4.16
2017-10-30T00:32:07.394Z,4.13
2017-10-30T00:32:11.740Z,4.16
2017-10-30T00:32:15.947Z,4.17
2017-10-30T00:32:20.175Z,4.16
2017-10-30T00:32:24.248Z,4.13
2017-10-30T00:32:28.195Z,4.06
2017-10-30T00:32:32.441Z,4.11
2017-10-30T00:32:36.259Z,4.11
2017-10-30T00:32:40.070Z,4.14
2017-10-30T00:32:43.884Z,4.08
2017-10-30T00:32:48.099Z,4.18
2017-10-30T00:32:52.178Z,4.16
2017-10-30T00:32:56.394Z,4.1
2017-10-30T00:33:00.358Z,4.13
2017-10-30T00:33:04.571Z,4.14
2017-10-30T00:33:08.912Z,4.14
2017-10-30T00:33:12.987Z,4.17
2017-10-30T00:33:17.201Z,4.13
2017-10-30T00:33:21.676Z,4.1
2017-10-30T00:33:25.753Z,4.14
2017-10-30T00:33:29.695Z,4.1
2017-10-30T00:33:33.773Z,4.14
2017-10-30T00:33:37.860Z,4.14
2017-10-30T00:33:41.678Z,4.14
2017-10-30T00:33:45.757Z,4.11
2017-10-30T00:33:49.702Z,4.14
2017-10-30T00:33:53.797Z,4.07
2017-10-30T00:33:58.012Z,4.16
2017-10-30T00:34:02.359Z,4.14
2017-10-30T00:34:06.443Z,4.16
2017-10-30T00:34:10.252Z,4.17
2017-10-30T00:34:14.215Z,4.17
2017-10-30T00:34:18.297Z,4.11
2017-10-30T00:34:22.395Z,4.1
2017-10-30T00:34:26.343Z,4.11
2017-10-30T00:34:30.557Z,4.14
2017-10-30T00:34:34.770Z,4.14
2017-10-30T00:34:38.716Z,4.11
2017-10-30T00:34:42.662Z,4.14
2017-10-30T00:34:46.743Z,4.11
2017-10-30T00:34:50.557Z,4.18
2017-10-30T00:34:54.769Z,4.08
2017-10-30T00:34:58.449Z,4.13
2017-10-30T00:35:02.872Z,4.16
2017-10-30T00:35:06.950Z,4.18
2017-10-30T00:35:10.900Z,4.08
2017-10-30T00:35:14.854Z,4.17
2017-10-30T00:35:18.945Z,4.13
2017-10-30T00:35:22.886Z,4.16
2017-10-30T00:35:26.844Z,4.1
2017-10-30T00:35:31.057Z,4.14
2017-10-30T00:35:35.269Z,4.16
2017-10-30T00:35:39.217Z,4.14
2017-10-30T00:35:43.294Z,4.18
2017-10-30T00:35:47.368Z,4.14
2017-10-30T00:35:51.185Z,4.21
2017-10-30T00:35:55.424Z,4.13
2017-10-30T00:35:59.774Z,4.13
2017-10-30T00:36:04.213Z,4.14
2017-10-30T00:36:08.032Z,4.16
2017-10-30T00:36:11.844Z,4.18
2017-10-30T00:36:15.928Z,4.11
2017-10-30T00:36:20.143Z,4.17
2017-10-30T00:36:24.234Z,4.1
2017-10-30T00:36:28.175Z,4.17
2017-10-30T00:36:31.990Z,4.13
2017-10-30T00:36:35.949Z,4.17
2017-10-30T00:36:40.025Z,4.17
2017-10-30T00:36:44.099Z,4.13
2017-10-30T00:36:48.053Z,4.11
2017-10-30T00:36:52.132Z,4.13
2017-10-30T00:36:56.215Z,4.13
2017-10-30T00:37:00.424Z,4.1
2017-10-30T00:37:04.503Z,4.13
2017-10-30T00:37:08.721Z,4.13
2017-10-30T00:37:13.068Z,4.13
2017-10-30T00:37:17.279Z,4.17
2017-10-30T00:37:21.091Z,4.16
2017-10-30T00:37:25.433Z,4.11
2017-10-30T00:37:29.647Z,4.18
2017-10-30T00:37:33.853Z,4.17
2017-10-30T00:37:38.195Z,4.17
2017-10-30T00:37:42.145Z,4.13
2017-10-30T00:37:46.358Z,4.11
2017-10-30T00:37:50.438Z,4.14
2017-10-30T00:37:54.523Z,4.21
2017-10-30T00:37:58.334Z,4.13
2017-10-30T00:38:02.615Z,4.13
2017-10-30T00:38:06.562Z,4.13
2017-10-30T00:38:10.520Z,4.14
2017-10-30T00:38:14.731Z,4.1
2017-10-30T00:38:18.807Z,4.16
2017-10-30T00:38:22.621Z,4.13
2017-10-30T00:38:26.705Z,4.14
2017-10-30T00:38:30.389Z,4.17
2017-10-30T00:38:34.343Z,4.17
2017-10-30T00:38:38.415Z,4.13
2017-10-30T00:38:42.263Z,4.18
2017-10-30T00:38:46.475Z,4.14
2017-10-30T00:38:50.714Z,4.14
2017-10-30T00:38:54.667Z,4.11
2017-10-30T00:38:58.870Z,4.17
2017-10-30T00:39:02.953Z,4.13
2017-10-30T00:39:07.301Z,4.17
2017-10-30T00:39:11.113Z,4.16
2017-10-30T00:39:15.192Z,4.14
2017-10-30T00:39:19.038Z,4.2
2017-10-30T00:39:22.996Z,4.18
2017-10-30T00:39:27.218Z,4.13
2017-10-30T00:39:31.295Z,4.16
2017-10-30T00:39:35.376Z,4.14
2017-10-30T00:39:39.592Z,4.14
2017-10-30T00:39:43.672Z,4.16
2017-10-30T00:39:47.888Z,4.17
2017-10-30T00:39:51.963Z,4.16
2017-10-30T00:39:55.914Z,4.16
2017-10-30T00:39:59.729Z,4.2
2017-10-30T00:40:04.114Z,4.17
2017-10-30T00:40:08.068Z,4.25
2017-10-30T00:40:12.027Z,4.25
2017-10-30T00:40:16.110Z,4.21
2017-10-30T00:40:20.064Z,4.2
2017-10-30T00:40:24.148Z,4.16
2017-10-30T00:40:28.097Z,4.24
2017-10-30T00:40:32.056Z,4.21
2017-10-30T00:40:36.278Z,4.21
2017-10-30T00:40:40.651Z,4.2
2017-10-30T00:40:44.870Z,4.16
2017-10-30T00:40:48.822Z,4.14
2017-10-30T00:40:52.642Z,4.28
2017-10-30T00:40:56.981Z,4.18
2017-10-30T00:41:01.054Z,4.21
2017-10-30T00:41:05.521Z,4.18
2017-10-30T00:41:09.463Z,4.16
2017-10-30T00:41:13.278Z,4.26
2017-10-30T00:41:16.961Z,4.29
2017-10-30T00:41:21.308Z,4.18
2017-10-30T00:41:24.990Z,4.26
2017-10-30T00:41:29.075Z,4.18
2017-10-30T00:41:33.290Z,4.16
2017-10-30T00:41:37.235Z,4.28
2017-10-30T00:41:41.318Z,4.21
2017-10-30T00:41:45.401Z,4.2
2017-10-30T00:41:49.623Z,4.28
2017-10-30T00:41:53.835Z,4.28
2017-10-30T00:41:58.052Z,4.17
2017-10-30T00:42:02.475Z,4.24
2017-10-30T00:42:06.604Z,4.21
2017-10-30T00:42:10.946Z,4.21
2017-10-30T00:42:15.159Z,4.25
2017-10-30T00:42:19.108Z,4.21
2017-10-30T00:42:23.313Z,4.21
2017-10-30T00:42:27.386Z,4.28
2017-10-30T00:42:31.467Z,4.32
2017-10-30T00:42:35.547Z,4.34
2017-10-30T00:42:39.497Z,4.31
2017-10-30T00:42:43.711Z,4.28
2017-10-30T00:42:47.934Z,4.24
2017-10-30T00:42:51.891Z,4.26
2017-10-30T00:42:55.564Z,4.29
2017-10-30T00:42:59.510Z,4.26
2017-10-30T00:43:03.456Z,4.26
2017-10-30T00:43:07.533Z,4.26
2017-10-30T00:43:11.615Z,4.31
2017-10-30T00:43:15.697Z,4.25
2017-10-30T00:43:19.510Z,4.28
2017-10-30T00:43:23.729Z,4.25
2017-10-30T00:43:27.552Z,4.25
2017-10-30T00:43:31.364Z,4.25
2017-10-30T00:43:35.579Z,4.28
2017-10-30T00:43:39.653Z,4.32
2017-10-30T00:43:43.863Z,4.2
2017-10-30T00:43:47.811Z,4.35
2017-10-30T00:43:52.022Z,4.32
2017-10-30T00:43:56.260Z,4.28
2017-10-30T00:44:00.079Z,4.28
2017-10-30T00:44:04.154Z,4.21
2017-10-30T00:44:08.245Z,4.26
2017-10-30T00:44:12.357Z,4.34
2017-10-30T00:44:16.298Z,4.24
2017-10-30T00:44:20.113Z,4.24
2017-10-30T00:44:24.322Z,4.24
2017-10-30T00:44:28.660Z,4.2
2017-10-30T00:44:33.015Z,4.2
2017-10-30T00:44:37.094Z,4.28
2017-10-30T00:44:41.178Z,4.28
2017-10-30T00:44:44.992Z,4.31
2017-10-30T00:44:49.208Z,4.28
2017-10-30T00:44:53.422Z,4.26
2017-10-30T00:44:57.629Z,4.2
2017-10-30T00:45:01.575Z,4.32
2017-10-30T00:45:05.682Z,4.28
2017-10-30T00:45:09.629Z,4.31
2017-10-30T00:45:13.577Z,4.28
2017-10-30T00:45:18.049Z,4.39
2017-10-30T00:45:22.254Z,4.26
2017-10-30T00:45:26.469Z,4.31
2017-10-30T00:45:30.677Z,4.26
2017-10-30T00:45:34.750Z,4.21
2017-10-30T00:45:38.838Z,4.34
2017-10-30T00:45:43.189Z,4.29
2017-10-30T00:45:47.259Z,4.25
2017-10-30T00:45:51.078Z,4.24
2017-10-30T00:45:55.296Z,4.24
2017-10-30T00:45:59.373Z,4.29
2017-10-30T00:46:03.750Z,4.39
2017-10-30T00:46:07.845Z,4.39
2017-10-30T00:46:11.661Z,4.39
2017-10-30T00:46:15.869Z,4.39
2017-10-30T00:46:19.682Z,4.26
2017-10-30T00:46:23.894Z,4.32
2017-10-30T00:46:27.843Z,4.28
2017-10-30T00:46:31.921Z,4.34
2017-10-30T00:46:36.001Z,4.43
2017-10-30T00:46:40.239Z,4.26
2017-10-30T00:46:44.051Z,4.25
2017-10-30T00:46:47.867Z,4.32
2017-10-30T00:46:51.945Z,4.39
2017-10-30T00:46:56.024Z,4.36
2017-10-30T00:47:00.101Z,4.35
2017-10-30T00:47:04.051Z,4.26
2017-10-30T00:47:08.008Z,4.31
2017-10-30T00:47:12.090Z,4.25
2017-10-30T00:47:16.171Z,4.29
2017-10-30T00:47:20.257Z,4.36
2017-10-30T00:47:24.203Z,4.31
2017-10-30T00:47:28.278Z,4.25
2017-10-30T00:47:32.631Z,4.32
2017-10-30T00:47:36.836Z,4.29
2017-10-30T00:47:40.664Z,4.32
2017-10-30T00:47:44.873Z,4.28
2017-10-30T00:47:48.819Z,4.34
2017-10-30T00:47:52.761Z,4.32
2017-10-30T00:47:56.975Z,4.26
2017-10-30T00:48:01.185Z,4.34
2017-10-30T00:48:05.410Z,4.28
2017-10-30T00:48:09.487Z,4.28
2017-10-30T00:48:13.708Z,4.35
2017-10-30T00:48:17.931Z,4.34
2017-10-30T00:48:21.881Z,4.26
2017-10-30T00:48:25.964Z,4.29
2017-10-30T00:48:30.039Z,4.43
2017-10-30T00:48:33.993Z,4.26
2017-10-30T00:48:38.073Z,4.32
2017-10-30T00:48:42.284Z,4.35
2017-10-30T00:48:46.094Z,4.43
2017-10-30T00:48:50.441Z,4.36
2017-10-30T00:48:54.520Z,4.34
2017-10-30T00:48:58.469Z,4.36
2017-10-30T00:49:02.682Z,4.36
2017-10-30T00:49:06.497Z,4.28
2017-10-30T00:49:10.579Z,4.34
2017-10-30T00:49:14.673Z,4.43
2017-10-30T00:49:18.874Z,4.29
2017-10-30T00:49:22.951Z,4.35
2017-10-30T00:49:27.028Z,4.36
2017-10-30T00:49:31.102Z,4.29
2017-10-30T00:49:35.052Z,4.36
2017-10-30T00:49:39.166Z,4.24
2017-10-30T00:49:43.379Z,4.34
2017-10-30T00:49:47.461Z,4.32
2017-10-30T00:49:51.555Z,4.28
2017-10-30T00:49:55.635Z,4.36
2017-10-30T00:49:59.580Z,4.28
2017-10-30T00:50:04.085Z,4.34
2017-10-30T00:50:08.167Z,4.31
2017-10-30T00:50:12.377Z,4.25
2017-10-30T00:50:16.597Z,4.43
2017-10-30T00:50:20.675Z,4.32
2017-10-30T00:50:24.759Z,4.35
2017-10-30T00:50:28.979Z,4.29
2017-10-30T00:50:33.189Z,4.25
2017-10-30T00:50:37.534Z,4.34
2017-10-30T00:50:42.008Z,4.31
2017-10-30T00:50:45.821Z,4.35
2017-10-30T00:50:49.765Z,4.31
2017-10-30T00:50:53.844Z,4.38
2017-10-30T00:50:57.793Z,4.34
2017-10-30T00:51:01.877Z,4.36
2017-10-30T00:51:06.081Z,4.28
2017-10-30T00:51:10.291Z,4.28
2017-10-30T00:51:14.385Z,4.29
2017-10-30T00:51:18.848Z,4.29
2017-10-30T00:51:22.927Z,4.28
2017-10-30T00:51:27.012Z,4.34
2017-10-30T00:51:30.954Z,4.32
2017-10-30T00:51:34.898Z,4.32
2017-10-30T00:51:38.849Z,4.35
2017-10-30T00:51:43.059Z,4.26
2017-10-30T00:51:47.138Z,4.35
2017-10-30T00:51:51.102Z,4.43
2017-10-30T00:51:55.043Z,4.34
2017-10-30T00:51:59.125Z,4.38
2017-10-30T00:52:03.209Z,4.32
2017-10-30T00:52:07.298Z,4.31
2017-10-30T00:52:11.119Z,4.34
2017-10-30T00:52:14.936Z,4.26
2017-10-30T00:52:19.156Z,4.35
2017-10-30T00:52:23.241Z,4.35
2017-10-30T00:52:27.199Z,4.31
2017-10-30T00:52:31.159Z,4.29
2017-10-30T00:52:35.374Z,4.24
2017-10-30T00:52:39.449Z,4.32
2017-10-30T00:52:43.660Z,4.28
2017-10-30T00:52:47.874Z,4.25
2017-10-30T00:52:52.079Z,4.29
2017-10-30T00:52:56.033Z,4.28
2017-10-30T00:53:00.249Z,4.34
2017-10-30T00:53:04.455Z,4.31
2017-10-30T00:53:08.663Z,4.25
2017-10-30T00:53:12.873Z,4.34
2017-10-30T00:53:17.080Z,4.26
2017-10-30T00:53:21.156Z,4.32
2017-10-30T00:53:25.373Z,4.35
2017-10-30T00:53:29.455Z,4.24
2017-10-30T00:53:33.534Z,4.24
2017-10-30T00:53:37.611Z,4.39
2017-10-30T00:53:41.692Z,4.26
2017-10-30T00:53:45.913Z,4.21
2017-10-30T00:53:49.858Z,4.2
2017-10-30T00:53:54.072Z,4.26
2017-10-30T00:53:58.172Z,4.32
2017-10-30T00:54:02.598Z,4.29
2017-10-30T00:54:06.808Z,4.26
2017-10-30T00:54:11.016Z,4.24
2017-10-30T00:54:15.098Z,4.31
2017-10-30T00:54:19.173Z,4.25
2017-10-30T00:54:23.390Z,4.28
2017-10-30T00:54:27.476Z,4.2